Time;durP1;ratioP1;P1;durP2;ratioP2;P2;SDS_P1;SDS_P2;PMS_P1;PMS_P2;Temp;Humidity;BMP_temperature;BMP_pressure;BME280_temperature;BME280_humidity;BME280_pressure;Samples;Min_cycle;Max_cycle;Signal;HPM_P1;HPM_P2
2021/03/14 00:00:38;;;;;;;0.95;0.8;;;;;;;5.4;78.16309;94049.74;;;;
2021/03/14 00:01:41;;;;;;;0.95;0.8;;;;;;;5.4;78.16309;94049.74;;;;
2021/03/14 00:02:41;;;;;;;0.95;0.8;;;;;;;5.4;78.16309;94049.74;;;;
2021/03/14 00:03:42;;;;;;;0.95;0.8;;;;;;;5.4;78.16309;94049.74;;;;
2021/03/14 00:04:42;;;;;;;0.95;0.8;;;;;;;5.4;78.16309;94049.74;;;;
2021/03/14 00:05:43;;;;;;;0.95;0.8;;;;;;;5.4;78.16309;94049.74;;;;
2021/03/14 00:06:45;;;;;;;0.95;0.8;;;;;;;5.4;78.16309;94049.74;;;;
2021/03/14 00:07:45;;;;;;;0.95;0.8;;;;;;;5.4;78.16309;94049.74;;;;
2021/03/14 00:08:46;;;;;;;2.1;0.9;;;;;;;5.36;77.2041;94088.86;;;;
2021/03/14 00:09:46;;;;;;;2.1;0.9;;;;;;;5.36;77.2041;94088.86;;;;
2021/03/14 00:10:47;;;;;;;2.1;0.9;;;;;;;5.36;77.2041;94088.86;;;;
2021/03/14 00:11:50;;;;;;;2.1;0.9;;;;;;;5.36;77.2041;94088.86;;;;
2021/03/14 00:12:50;;;;;;;2.1;0.9;;;;;;;5.36;77.2041;94088.86;;;;
2021/03/14 00:13:51;;;;;;;2.1;0.9;;;;;;;5.36;77.2041;94088.86;;;;
2021/03/14 00:14:52;;;;;;;2.1;0.9;;;;;;;5.36;77.2041;94088.86;;;;
2021/03/14 00:15:52;;;;;;;2.1;0.9;;;;;;;5.36;77.2041;94088.86;;;;
2021/03/14 00:16:53;;;;;;;2.1;0.9;;;;;;;5.36;77.2041;94088.86;;;;
2021/03/14 00:17:54;;;;;;;2.1;0.9;;;;;;;5.36;77.2041;94088.86;;;;
2021/03/14 00:18:54;;;;;;;2.1;0.9;;;;;;;5.36;77.2041;94088.86;;;;
2021/03/14 00:19:55;;;;;;;1.5;0.9;;;;;;;4.75;77.92969;94107.03;;;;
2021/03/14 00:20:55;;;;;;;1.5;0.9;;;;;;;4.75;77.92969;94107.03;;;;
2021/03/14 00:21:57;;;;;;;1.5;0.9;;;;;;;4.75;77.92969;94107.03;;;;
2021/03/14 00:22:57;;;;;;;1.5;0.9;;;;;;;4.75;77.92969;94107.03;;;;
2021/03/14 00:23:58;;;;;;;1.5;0.9;;;;;;;4.75;77.92969;94107.03;;;;
2021/03/14 00:24:58;;;;;;;1.5;0.9;;;;;;;4.75;77.92969;94107.03;;;;
2021/03/14 00:25:59;;;;;;;1.5;0.9;;;;;;;4.75;77.92969;94107.03;;;;
2021/03/14 00:27:01;;;;;;;1.5;0.9;;;;;;;4.75;77.92969;94107.03;;;;
2021/03/14 00:28:02;;;;;;;1.5;0.9;;;;;;;4.75;77.92969;94107.03;;;;
2021/03/14 00:29:03;;;;;;;1.5;0.9;;;;;;;4.75;77.92969;94107.03;;;;
2021/03/14 00:30:04;;;;;;;0.85;0.85;;;;;;;4.02;80.44824;94110.94;;;;
2021/03/14 00:31:07;;;;;;;0.85;0.85;;;;;;;4.02;80.44824;94110.94;;;;
2021/03/14 00:32:07;;;;;;;0.85;0.85;;;;;;;4.02;80.44824;94110.94;;;;
2021/03/14 00:33:08;;;;;;;0.85;0.85;;;;;;;4.02;80.44824;94110.94;;;;
2021/03/14 00:34:09;;;;;;;0.85;0.85;;;;;;;4.02;80.44824;94110.94;;;;
2021/03/14 00:35:10;;;;;;;0.85;0.85;;;;;;;4.02;80.44824;94110.94;;;;
2021/03/14 00:36:14;;;;;;;0.85;0.85;;;;;;;4.02;80.44824;94110.94;;;;
2021/03/14 00:37:15;;;;;;;0.85;0.85;;;;;;;4.02;80.44824;94110.94;;;;
2021/03/14 00:38:15;;;;;;;0.85;0.85;;;;;;;4.02;80.44824;94110.94;;;;
2021/03/14 00:39:16;;;;;;;0.85;0.85;;;;;;;4.02;80.44824;94110.94;;;;
2021/03/14 00:40:17;;;;;;;0.85;0.85;;;;;;;4.02;80.44824;94110.94;;;;
2021/03/14 00:41:18;;;;;;;0.65;0.65;;;;;;;3.4;82.27539;94097.41;;;;
2021/03/14 00:42:19;;;;;;;0.65;0.65;;;;;;;3.4;82.27539;94097.41;;;;
2021/03/14 00:43:20;;;;;;;0.65;0.65;;;;;;;3.4;82.27539;94097.41;;;;
2021/03/14 00:44:20;;;;;;;0.65;0.65;;;;;;;3.4;82.27539;94097.41;;;;
2021/03/14 00:45:21;;;;;;;0.65;0.65;;;;;;;3.4;82.27539;94097.41;;;;
2021/03/14 00:46:21;;;;;;;0.65;0.65;;;;;;;3.4;82.27539;94097.41;;;;
2021/03/14 00:47:22;;;;;;;0.65;0.65;;;;;;;3.4;82.27539;94097.41;;;;
2021/03/14 00:48:22;;;;;;;0.65;0.65;;;;;;;3.4;82.27539;94097.41;;;;
2021/03/14 00:49:23;;;;;;;0.65;0.65;;;;;;;3.4;82.27539;94097.41;;;;
2021/03/14 00:50:24;;;;;;;0.65;0.65;;;;;;;3.4;82.27539;94097.41;;;;
2021/03/14 00:51:25;;;;;;;0.7;0.7;;;;;;;3.07;83.80762;94091.47;;;;
2021/03/14 00:52:25;;;;;;;0.7;0.7;;;;;;;3.07;83.80762;94091.47;;;;
2021/03/14 00:53:26;;;;;;;0.7;0.7;;;;;;;3.07;83.80762;94091.47;;;;
2021/03/14 00:54:26;;;;;;;0.7;0.7;;;;;;;3.07;83.80762;94091.47;;;;
2021/03/14 00:55:27;;;;;;;0.7;0.7;;;;;;;3.07;83.80762;94091.47;;;;
2021/03/14 00:56:28;;;;;;;0.7;0.7;;;;;;;3.07;83.80762;94091.47;;;;
2021/03/14 00:57:28;;;;;;;0.7;0.7;;;;;;;3.07;83.80762;94091.47;;;;
2021/03/14 00:58:29;;;;;;;0.7;0.7;;;;;;;3.07;83.80762;94091.47;;;;
2021/03/14 00:59:30;;;;;;;0.7;0.7;;;;;;;3.07;83.80762;94091.47;;;;
2021/03/14 01:00:30;;;;;;;0.7;0.7;;;;;;;3.07;83.80762;94091.47;;;;
2021/03/14 01:01:31;;;;;;;0.7;0.7;;;;;;;3.07;83.80762;94091.47;;;;
2021/03/14 01:02:32;;;;;;;0.65;0.65;;;;;;;2.94;85.3125;94076.5;;;;
2021/03/14 01:03:32;;;;;;;0.65;0.65;;;;;;;2.94;85.3125;94076.5;;;;
2021/03/14 01:04:33;;;;;;;0.65;0.65;;;;;;;2.94;85.3125;94076.5;;;;
2021/03/14 01:05:33;;;;;;;0.65;0.65;;;;;;;2.94;85.3125;94076.5;;;;
2021/03/14 01:06:34;;;;;;;0.65;0.65;;;;;;;2.94;85.3125;94076.5;;;;
2021/03/14 01:07:34;;;;;;;0.65;0.65;;;;;;;2.94;85.3125;94076.5;;;;
2021/03/14 01:08:35;;;;;;;0.65;0.65;;;;;;;2.94;85.3125;94076.5;;;;
2021/03/14 01:09:35;;;;;;;0.65;0.65;;;;;;;2.94;85.3125;94076.5;;;;
2021/03/14 01:10:36;;;;;;;0.65;0.65;;;;;;;2.94;85.3125;94076.5;;;;
2021/03/14 01:11:37;;;;;;;0.65;0.65;;;;;;;2.94;85.3125;94076.5;;;;
2021/03/14 01:12:37;;;;;;;0.65;0.65;;;;;;;2.94;85.3125;94076.5;;;;
2021/03/14 01:13:38;;;;;;;1.2;0.7;;;;;;;2.88;85.92773;94073.91;;;;
2021/03/14 01:14:39;;;;;;;1.2;0.7;;;;;;;2.88;85.92773;94073.91;;;;
2021/03/14 01:15:39;;;;;;;1.2;0.7;;;;;;;2.88;85.92773;94073.91;;;;
2021/03/14 01:16:40;;;;;;;1.2;0.7;;;;;;;2.88;85.92773;94073.91;;;;
2021/03/14 01:17:41;;;;;;;1.2;0.7;;;;;;;2.88;85.92773;94073.91;;;;
2021/03/14 01:18:42;;;;;;;1.2;0.7;;;;;;;2.88;85.92773;94073.91;;;;
2021/03/14 01:19:43;;;;;;;1.2;0.7;;;;;;;2.88;85.92773;94073.91;;;;
2021/03/14 01:20:43;;;;;;;1.2;0.7;;;;;;;2.88;85.92773;94073.91;;;;
2021/03/14 01:21:44;;;;;;;1.2;0.7;;;;;;;2.88;85.92773;94073.91;;;;
2021/03/14 01:22:44;;;;;;;1.2;0.7;;;;;;;2.88;85.92773;94073.91;;;;
2021/03/14 01:23:45;;;;;;;0.65;0.65;;;;;;;2.88;86.82813;94068.58;;;;
2021/03/14 01:24:46;;;;;;;0.65;0.65;;;;;;;2.88;86.82813;94068.58;;;;
2021/03/14 01:25:47;;;;;;;0.65;0.65;;;;;;;2.88;86.82813;94068.58;;;;
2021/03/14 01:26:47;;;;;;;0.65;0.65;;;;;;;2.88;86.82813;94068.58;;;;
2021/03/14 01:27:48;;;;;;;0.65;0.65;;;;;;;2.88;86.82813;94068.58;;;;
2021/03/14 01:28:48;;;;;;;0.65;0.65;;;;;;;2.88;86.82813;94068.58;;;;
2021/03/14 01:29:50;;;;;;;0.65;0.65;;;;;;;2.88;86.82813;94068.58;;;;
2021/03/14 01:30:50;;;;;;;0.65;0.65;;;;;;;2.88;86.82813;94068.58;;;;
2021/03/14 01:31:51;;;;;;;0.65;0.65;;;;;;;2.88;86.82813;94068.58;;;;
2021/03/14 01:32:51;;;;;;;0.65;0.65;;;;;;;2.88;86.82813;94068.58;;;;
2021/03/14 01:33:52;;;;;;;0.65;0.65;;;;;;;2.88;86.82813;94068.58;;;;
2021/03/14 01:34:52;;;;;;;1;0.6;;;;;;;2.81;87.30664;94080.61;;;;
2021/03/14 01:35:53;;;;;;;1;0.6;;;;;;;2.81;87.30664;94080.61;;;;
2021/03/14 01:36:54;;;;;;;1;0.6;;;;;;;2.81;87.30664;94080.61;;;;
2021/03/14 01:37:54;;;;;;;1;0.6;;;;;;;2.81;87.30664;94080.61;;;;
2021/03/14 01:38:55;;;;;;;1;0.6;;;;;;;2.81;87.30664;94080.61;;;;
2021/03/14 01:39:55;;;;;;;1;0.6;;;;;;;2.81;87.30664;94080.61;;;;
2021/03/14 01:40:56;;;;;;;1;0.6;;;;;;;2.81;87.30664;94080.61;;;;
2021/03/14 01:41:56;;;;;;;1;0.6;;;;;;;2.81;87.30664;94080.61;;;;
2021/03/14 01:42:57;;;;;;;1;0.6;;;;;;;2.81;87.30664;94080.61;;;;
2021/03/14 01:43:58;;;;;;;1;0.6;;;;;;;2.81;87.30664;94080.61;;;;
2021/03/14 01:44:59;;;;;;;0.5;0.5;;;;;;;2.78;87.36426;94069.48;;;;
2021/03/14 01:45:59;;;;;;;0.5;0.5;;;;;;;2.78;87.36426;94069.48;;;;
2021/03/14 01:47:00;;;;;;;0.5;0.5;;;;;;;2.78;87.36426;94069.48;;;;
2021/03/14 01:48:00;;;;;;;0.5;0.5;;;;;;;2.78;87.36426;94069.48;;;;
2021/03/14 01:49:03;;;;;;;0.5;0.5;;;;;;;2.78;87.36426;94069.48;;;;
2021/03/14 01:50:04;;;;;;;0.5;0.5;;;;;;;2.78;87.36426;94069.48;;;;
2021/03/14 01:51:10;;;;;;;0.5;0.5;;;;;;;2.78;87.36426;94069.48;;;;
2021/03/14 01:52:10;;;;;;;0.5;0.5;;;;;;;2.78;87.36426;94069.48;;;;
2021/03/14 01:53:11;;;;;;;0.5;0.5;;;;;;;2.78;87.36426;94069.48;;;;
2021/03/14 01:54:12;;;;;;;0.5;0.5;;;;;;;2.78;87.36426;94069.48;;;;
2021/03/14 01:55:12;;;;;;;0.5;0.5;;;;;;;2.78;87.36426;94069.48;;;;
2021/03/14 01:56:16;;;;;;;0.6;0.6;;;;;;;2.68;87.64648;94054.61;;;;
2021/03/14 01:57:17;;;;;;;0.6;0.6;;;;;;;2.68;87.64648;94054.61;;;;
2021/03/14 01:58:18;;;;;;;0.6;0.6;;;;;;;2.68;87.64648;94054.61;;;;
2021/03/14 01:59:20;;;;;;;0.6;0.6;;;;;;;2.68;87.64648;94054.61;;;;
2021/03/14 02:00:22;;;;;;;0.6;0.6;;;;;;;2.68;87.64648;94054.61;;;;
2021/03/14 02:01:25;;;;;;;0.6;0.6;;;;;;;2.68;87.64648;94054.61;;;;
2021/03/14 02:02:26;;;;;;;0.6;0.6;;;;;;;2.68;87.64648;94054.61;;;;
2021/03/14 02:03:27;;;;;;;0.6;0.6;;;;;;;2.68;87.64648;94054.61;;;;
2021/03/14 02:04:27;;;;;;;0.6;0.6;;;;;;;2.68;87.64648;94054.61;;;;
2021/03/14 02:05:28;;;;;;;0.6;0.6;;;;;;;2.68;87.64648;94054.61;;;;
2021/03/14 02:06:28;;;;;;;0.5;0.5;;;;;;;2.66;87.71582;94083.59;;;;
2021/03/14 02:07:29;;;;;;;0.5;0.5;;;;;;;2.66;87.71582;94083.59;;;;
2021/03/14 02:08:29;;;;;;;0.5;0.5;;;;;;;2.66;87.71582;94083.59;;;;
2021/03/14 02:09:30;;;;;;;0.5;0.5;;;;;;;2.66;87.71582;94083.59;;;;
2021/03/14 02:10:31;;;;;;;0.5;0.5;;;;;;;2.66;87.71582;94083.59;;;;
2021/03/14 02:11:33;;;;;;;0.5;0.5;;;;;;;2.66;87.71582;94083.59;;;;
2021/03/14 02:12:38;;;;;;;0.5;0.5;;;;;;;2.66;87.71582;94083.59;;;;
2021/03/14 02:13:52;;;;;;;0.5;0.5;;;;;;;2.66;87.71582;94083.59;;;;
2021/03/14 02:14:56;;;;;;;0.5;0.5;;;;;;;2.66;87.71582;94083.59;;;;
2021/03/14 02:15:59;;;;;;;0.5;0.5;;;;;;;2.66;87.71582;94083.59;;;;
2021/03/14 02:17:06;;;;;;;0.55;0.55;;;;;;;2.64;88.22266;94084.45;;;;
2021/03/14 02:18:09;;;;;;;0.55;0.55;;;;;;;2.64;88.22266;94084.45;;;;
2021/03/14 02:19:11;;;;;;;0.55;0.55;;;;;;;2.64;88.22266;94084.45;;;;
2021/03/14 02:20:20;;;;;;;0.55;0.55;;;;;;;2.64;88.22266;94084.45;;;;
2021/03/14 02:21:23;;;;;;;0.55;0.55;;;;;;;2.64;88.22266;94084.45;;;;
2021/03/14 02:22:25;;;;;;;0.55;0.55;;;;;;;2.64;88.22266;94084.45;;;;
2021/03/14 02:23:26;;;;;;;0.55;0.55;;;;;;;2.64;88.22266;94084.45;;;;
2021/03/14 02:24:34;;;;;;;0.55;0.55;;;;;;;2.64;88.22266;94084.45;;;;
2021/03/14 02:25:43;;;;;;;0.55;0.55;;;;;;;2.64;88.22266;94084.45;;;;
2021/03/14 02:26:48;;;;;;;0.55;0.55;;;;;;;2.64;88.22266;94084.45;;;;
2021/03/14 02:27:55;;;;;;;0.5;0.5;;;;;;;2.54;88.72754;94090.67;;;;
2021/03/14 02:28:55;;;;;;;0.5;0.5;;;;;;;2.54;88.72754;94090.67;;;;
2021/03/14 02:29:56;;;;;;;0.5;0.5;;;;;;;2.54;88.72754;94090.67;;;;
2021/03/14 02:30:57;;;;;;;0.5;0.5;;;;;;;2.54;88.72754;94090.67;;;;
2021/03/14 02:31:59;;;;;;;0.5;0.5;;;;;;;2.54;88.72754;94090.67;;;;
2021/03/14 02:33:00;;;;;;;0.5;0.5;;;;;;;2.54;88.72754;94090.67;;;;
2021/03/14 02:34:01;;;;;;;0.5;0.5;;;;;;;2.54;88.72754;94090.67;;;;
2021/03/14 02:35:06;;;;;;;0.5;0.5;;;;;;;2.54;88.72754;94090.67;;;;
2021/03/14 02:36:08;;;;;;;0.5;0.5;;;;;;;2.54;88.72754;94090.67;;;;
2021/03/14 02:37:11;;;;;;;0.5;0.5;;;;;;;2.54;88.72754;94090.67;;;;
2021/03/14 02:38:13;;;;;;;0.6;0.5;;;;;;;2.51;89.55664;94084.96;;;;
2021/03/14 02:39:15;;;;;;;0.6;0.5;;;;;;;2.51;89.55664;94084.96;;;;
2021/03/14 02:40:19;;;;;;;0.6;0.5;;;;;;;2.51;89.55664;94084.96;;;;
2021/03/14 02:41:21;;;;;;;0.6;0.5;;;;;;;2.51;89.55664;94084.96;;;;
2021/03/14 02:42:23;;;;;;;0.6;0.5;;;;;;;2.51;89.55664;94084.96;;;;
2021/03/14 02:43:26;;;;;;;0.6;0.5;;;;;;;2.51;89.55664;94084.96;;;;
2021/03/14 02:44:27;;;;;;;0.6;0.5;;;;;;;2.51;89.55664;94084.96;;;;
2021/03/14 02:45:34;;;;;;;0.6;0.5;;;;;;;2.51;89.55664;94084.96;;;;
2021/03/14 02:46:35;;;;;;;0.6;0.5;;;;;;;2.51;89.55664;94084.96;;;;
2021/03/14 02:47:36;;;;;;;0.6;0.5;;;;;;;2.51;89.55664;94084.96;;;;
2021/03/14 02:48:38;;;;;;;0.6;0.5;;;;;;;2.51;89.55664;94084.96;;;;
2021/03/14 02:49:40;;;;;;;0.6;0.6;;;;;;;2.53;89.98926;94075.32;;;;
2021/03/14 02:50:41;;;;;;;0.6;0.6;;;;;;;2.53;89.98926;94075.32;;;;
2021/03/14 02:51:42;;;;;;;0.6;0.6;;;;;;;2.53;89.98926;94075.32;;;;
2021/03/14 02:52:43;;;;;;;0.6;0.6;;;;;;;2.53;89.98926;94075.32;;;;
2021/03/14 02:53:45;;;;;;;0.6;0.6;;;;;;;2.53;89.98926;94075.32;;;;
2021/03/14 02:54:46;;;;;;;0.6;0.6;;;;;;;2.53;89.98926;94075.32;;;;
2021/03/14 02:55:49;;;;;;;0.6;0.6;;;;;;;2.53;89.98926;94075.32;;;;
2021/03/14 02:56:52;;;;;;;0.6;0.6;;;;;;;2.53;89.98926;94075.32;;;;
2021/03/14 02:57:53;;;;;;;0.6;0.6;;;;;;;2.53;89.98926;94075.32;;;;
2021/03/14 02:58:54;;;;;;;0.6;0.6;;;;;;;2.53;89.98926;94075.32;;;;
2021/03/14 02:59:56;;;;;;;0.6;0.6;;;;;;;2.59;90.49414;94094.95;;;;
2021/03/14 03:00:58;;;;;;;0.6;0.6;;;;;;;2.59;90.49414;94094.95;;;;
2021/03/14 03:02:02;;;;;;;0.6;0.6;;;;;;;2.59;90.49414;94094.95;;;;
2021/03/14 03:03:03;;;;;;;0.6;0.6;;;;;;;2.59;90.49414;94094.95;;;;
2021/03/14 03:04:06;;;;;;;0.6;0.6;;;;;;;2.59;90.49414;94094.95;;;;
2021/03/14 03:05:06;;;;;;;0.6;0.6;;;;;;;2.59;90.49414;94094.95;;;;
2021/03/14 03:06:08;;;;;;;0.6;0.6;;;;;;;2.59;90.49414;94094.95;;;;
2021/03/14 03:07:10;;;;;;;0.6;0.6;;;;;;;2.59;90.49414;94094.95;;;;
2021/03/14 03:08:13;;;;;;;0.6;0.6;;;;;;;2.59;90.49414;94094.95;;;;
2021/03/14 03:09:17;;;;;;;0.6;0.6;;;;;;;2.59;90.49414;94094.95;;;;
2021/03/14 03:10:18;;;;;;;1.55;0.65;;;;;;;2.67;90.95898;94102.66;;;;
2021/03/14 03:11:21;;;;;;;1.55;0.65;;;;;;;2.67;90.95898;94102.66;;;;
2021/03/14 03:12:22;;;;;;;1.55;0.65;;;;;;;2.67;90.95898;94102.66;;;;
2021/03/14 03:13:25;;;;;;;1.55;0.65;;;;;;;2.67;90.95898;94102.66;;;;
2021/03/14 03:14:27;;;;;;;1.55;0.65;;;;;;;2.67;90.95898;94102.66;;;;
2021/03/14 03:15:29;;;;;;;1.55;0.65;;;;;;;2.67;90.95898;94102.66;;;;
2021/03/14 03:16:30;;;;;;;1.55;0.65;;;;;;;2.67;90.95898;94102.66;;;;
2021/03/14 03:17:31;;;;;;;1.55;0.65;;;;;;;2.67;90.95898;94102.66;;;;
2021/03/14 03:18:32;;;;;;;1.55;0.65;;;;;;;2.67;90.95898;94102.66;;;;
2021/03/14 03:19:33;;;;;;;1.55;0.65;;;;;;;2.67;90.95898;94102.66;;;;
2021/03/14 03:20:36;;;;;;;1.55;0.65;;;;;;;2.67;90.95898;94102.66;;;;
2021/03/14 03:21:38;;;;;;;0.55;0.55;;;;;;;2.75;91.24707;94113.48;;;;
2021/03/14 03:22:39;;;;;;;0.55;0.55;;;;;;;2.75;91.24707;94113.48;;;;
2021/03/14 03:23:40;;;;;;;0.55;0.55;;;;;;;2.75;91.24707;94113.48;;;;
2021/03/14 03:24:41;;;;;;;0.55;0.55;;;;;;;2.75;91.24707;94113.48;;;;
2021/03/14 03:25:41;;;;;;;0.55;0.55;;;;;;;2.75;91.24707;94113.48;;;;
2021/03/14 03:26:43;;;;;;;0.55;0.55;;;;;;;2.75;91.24707;94113.48;;;;
2021/03/14 03:27:46;;;;;;;0.55;0.55;;;;;;;2.75;91.24707;94113.48;;;;
2021/03/14 03:28:46;;;;;;;0.55;0.55;;;;;;;2.75;91.24707;94113.48;;;;
2021/03/14 03:29:49;;;;;;;0.55;0.55;;;;;;;2.75;91.24707;94113.48;;;;
2021/03/14 03:30:51;;;;;;;0.55;0.55;;;;;;;2.75;91.24707;94113.48;;;;
2021/03/14 03:31:52;;;;;;;0.45;0.45;;;;;;;2.8;91.66699;94117.64;;;;
2021/03/14 03:32:55;;;;;;;0.45;0.45;;;;;;;2.8;91.66699;94117.64;;;;
2021/03/14 03:33:56;;;;;;;0.45;0.45;;;;;;;2.8;91.66699;94117.64;;;;
2021/03/14 03:34:56;;;;;;;0.45;0.45;;;;;;;2.8;91.66699;94117.64;;;;
2021/03/14 03:35:57;;;;;;;0.45;0.45;;;;;;;2.8;91.66699;94117.64;;;;
2021/03/14 03:36:57;;;;;;;0.45;0.45;;;;;;;2.8;91.66699;94117.64;;;;
2021/03/14 03:37:58;;;;;;;0.45;0.45;;;;;;;2.8;91.66699;94117.64;;;;
2021/03/14 03:38:59;;;;;;;0.45;0.45;;;;;;;2.8;91.66699;94117.64;;;;
2021/03/14 03:40:00;;;;;;;0.45;0.45;;;;;;;2.8;91.66699;94117.64;;;;
2021/03/14 03:41:02;;;;;;;0.45;0.45;;;;;;;2.8;91.66699;94117.64;;;;
2021/03/14 03:42:03;;;;;;;0.45;0.45;;;;;;;2.8;91.66699;94117.64;;;;
2021/03/14 03:43:10;;;;;;;0.4;0.4;;;;;;;2.81;92.2002;94133.12;;;;
2021/03/14 03:44:14;;;;;;;0.4;0.4;;;;;;;2.81;92.2002;94133.12;;;;
2021/03/14 03:45:17;;;;;;;0.4;0.4;;;;;;;2.81;92.2002;94133.12;;;;
2021/03/14 03:46:19;;;;;;;0.4;0.4;;;;;;;2.81;92.2002;94133.12;;;;
2021/03/14 03:47:21;;;;;;;0.4;0.4;;;;;;;2.81;92.2002;94133.12;;;;
2021/03/14 03:48:23;;;;;;;0.4;0.4;;;;;;;2.81;92.2002;94133.12;;;;
2021/03/14 03:49:29;;;;;;;0.4;0.4;;;;;;;2.81;92.2002;94133.12;;;;
2021/03/14 03:50:32;;;;;;;0.4;0.4;;;;;;;2.81;92.2002;94133.12;;;;
2021/03/14 03:51:35;;;;;;;0.4;0.4;;;;;;;2.81;92.2002;94133.12;;;;
2021/03/14 03:52:37;;;;;;;0.4;0.4;;;;;;;2.81;92.2002;94133.12;;;;
2021/03/14 03:53:39;;;;;;;0.6;0.6;;;;;;;2.79;92.48047;94142.64;;;;
2021/03/14 03:54:40;;;;;;;0.6;0.6;;;;;;;2.79;92.48047;94142.64;;;;
2021/03/14 03:55:41;;;;;;;0.6;0.6;;;;;;;2.79;92.48047;94142.64;;;;
2021/03/14 03:56:43;;;;;;;0.6;0.6;;;;;;;2.79;92.48047;94142.64;;;;
2021/03/14 03:57:45;;;;;;;0.6;0.6;;;;;;;2.79;92.48047;94142.64;;;;
2021/03/14 03:58:46;;;;;;;0.6;0.6;;;;;;;2.79;92.48047;94142.64;;;;
2021/03/14 03:59:48;;;;;;;0.6;0.6;;;;;;;2.79;92.48047;94142.64;;;;
2021/03/14 04:00:51;;;;;;;0.6;0.6;;;;;;;2.79;92.48047;94142.64;;;;
2021/03/14 04:01:53;;;;;;;0.6;0.6;;;;;;;2.79;92.48047;94142.64;;;;
2021/03/14 04:02:55;;;;;;;0.6;0.6;;;;;;;2.79;92.48047;94142.64;;;;
2021/03/14 04:03:59;;;;;;;0.5;0.5;;;;;;;2.79;93.35742;94167.95;;;;
2021/03/14 04:05:02;;;;;;;0.5;0.5;;;;;;;2.79;93.35742;94167.95;;;;
2021/03/14 04:06:05;;;;;;;0.5;0.5;;;;;;;2.79;93.35742;94167.95;;;;
2021/03/14 04:07:07;;;;;;;0.5;0.5;;;;;;;2.79;93.35742;94167.95;;;;
2021/03/14 04:08:10;;;;;;;0.5;0.5;;;;;;;2.79;93.35742;94167.95;;;;
2021/03/14 04:09:12;;;;;;;0.5;0.5;;;;;;;2.79;93.35742;94167.95;;;;
2021/03/14 04:10:12;;;;;;;0.5;0.5;;;;;;;2.79;93.35742;94167.95;;;;
2021/03/14 04:11:16;;;;;;;0.5;0.5;;;;;;;2.79;93.35742;94167.95;;;;
2021/03/14 04:12:19;;;;;;;0.5;0.5;;;;;;;2.79;93.35742;94167.95;;;;
2021/03/14 04:13:20;;;;;;;0.5;0.5;;;;;;;2.79;93.35742;94167.95;;;;
2021/03/14 04:14:21;;;;;;;0.4;0.4;;;;;;;2.78;94.06641;94177;;;;
2021/03/14 04:15:23;;;;;;;0.4;0.4;;;;;;;2.78;94.06641;94177;;;;
2021/03/14 04:16:26;;;;;;;0.4;0.4;;;;;;;2.78;94.06641;94177;;;;
2021/03/14 04:17:28;;;;;;;0.4;0.4;;;;;;;2.78;94.06641;94177;;;;
2021/03/14 04:18:29;;;;;;;0.4;0.4;;;;;;;2.78;94.06641;94177;;;;
2021/03/14 04:19:31;;;;;;;0.4;0.4;;;;;;;2.78;94.06641;94177;;;;
2021/03/14 04:20:33;;;;;;;0.4;0.4;;;;;;;2.78;94.06641;94177;;;;
2021/03/14 04:21:37;;;;;;;0.4;0.4;;;;;;;2.78;94.06641;94177;;;;
2021/03/14 04:22:39;;;;;;;0.4;0.4;;;;;;;2.78;94.06641;94177;;;;
2021/03/14 04:23:43;;;;;;;0.4;0.4;;;;;;;2.78;94.06641;94177;;;;
2021/03/14 04:24:46;;;;;;;0.5;0.5;;;;;;;2.78;95.72656;94194.33;;;;
2021/03/14 04:25:48;;;;;;;0.5;0.5;;;;;;;2.78;95.72656;94194.33;;;;
2021/03/14 04:26:52;;;;;;;0.5;0.5;;;;;;;2.78;95.72656;94194.33;;;;
2021/03/14 04:27:53;;;;;;;0.5;0.5;;;;;;;2.78;95.72656;94194.33;;;;
2021/03/14 04:28:57;;;;;;;0.5;0.5;;;;;;;2.78;95.72656;94194.33;;;;
2021/03/14 04:29:59;;;;;;;0.5;0.5;;;;;;;2.78;95.72656;94194.33;;;;
2021/03/14 04:31:01;;;;;;;0.5;0.5;;;;;;;2.78;95.72656;94194.33;;;;
2021/03/14 04:32:03;;;;;;;0.5;0.5;;;;;;;2.78;95.72656;94194.33;;;;
2021/03/14 04:33:05;;;;;;;0.5;0.5;;;;;;;2.78;95.72656;94194.33;;;;
2021/03/14 04:34:09;;;;;;;0.5;0.5;;;;;;;2.78;95.72656;94194.33;;;;
2021/03/14 04:35:12;;;;;;;0.5;0.5;;;;;;;2.78;95.72656;94194.33;;;;
2021/03/14 04:36:13;;;;;;;0.5;0.5;;;;;;;2.81;97.51563;94201.09;;;;
2021/03/14 04:37:15;;;;;;;0.5;0.5;;;;;;;2.81;97.51563;94201.09;;;;
2021/03/14 04:38:16;;;;;;;0.5;0.5;;;;;;;2.81;97.51563;94201.09;;;;
2021/03/14 04:39:17;;;;;;;0.5;0.5;;;;;;;2.81;97.51563;94201.09;;;;
2021/03/14 04:40:18;;;;;;;0.5;0.5;;;;;;;2.81;97.51563;94201.09;;;;
2021/03/14 04:41:20;;;;;;;0.5;0.5;;;;;;;2.81;97.51563;94201.09;;;;
2021/03/14 04:42:21;;;;;;;0.5;0.5;;;;;;;2.81;97.51563;94201.09;;;;
2021/03/14 04:43:22;;;;;;;0.5;0.5;;;;;;;2.81;97.51563;94201.09;;;;
2021/03/14 04:44:24;;;;;;;0.5;0.5;;;;;;;2.81;97.51563;94201.09;;;;
2021/03/14 04:45:27;;;;;;;0.5;0.5;;;;;;;2.81;97.51563;94201.09;;;;
2021/03/14 04:46:29;;;;;;;0.4;0.4;;;;;;;2.84;98.70313;94236.11;;;;
2021/03/14 04:47:30;;;;;;;0.4;0.4;;;;;;;2.84;98.70313;94236.11;;;;
2021/03/14 04:48:30;;;;;;;0.4;0.4;;;;;;;2.84;98.70313;94236.11;;;;
2021/03/14 04:49:32;;;;;;;0.4;0.4;;;;;;;2.84;98.70313;94236.11;;;;
2021/03/14 04:50:33;;;;;;;0.4;0.4;;;;;;;2.84;98.70313;94236.11;;;;
2021/03/14 04:51:34;;;;;;;0.4;0.4;;;;;;;2.84;98.70313;94236.11;;;;
2021/03/14 04:52:37;;;;;;;0.4;0.4;;;;;;;2.84;98.70313;94236.11;;;;
2021/03/14 04:53:39;;;;;;;0.4;0.4;;;;;;;2.84;98.70313;94236.11;;;;
2021/03/14 04:54:41;;;;;;;0.4;0.4;;;;;;;2.84;98.70313;94236.11;;;;
2021/03/14 04:55:42;;;;;;;0.4;0.4;;;;;;;2.84;98.70313;94236.11;;;;
2021/03/14 04:56:45;;;;;;;0.4;0.4;;;;;;;2.84;98.70313;94236.11;;;;
2021/03/14 04:57:46;;;;;;;0.5;0.5;;;;;;;2.85;99.4873;94316.78;;;;
2021/03/14 04:58:48;;;;;;;0.5;0.5;;;;;;;2.85;99.4873;94316.78;;;;
2021/03/14 04:59:50;;;;;;;0.5;0.5;;;;;;;2.85;99.4873;94316.78;;;;
2021/03/14 05:00:52;;;;;;;0.5;0.5;;;;;;;2.85;99.4873;94316.78;;;;
2021/03/14 05:01:53;;;;;;;0.5;0.5;;;;;;;2.85;99.4873;94316.78;;;;
2021/03/14 05:02:53;;;;;;;0.5;0.5;;;;;;;2.85;99.4873;94316.78;;;;
2021/03/14 05:03:57;;;;;;;0.5;0.5;;;;;;;2.85;99.4873;94316.78;;;;
2021/03/14 05:05:00;;;;;;;0.5;0.5;;;;;;;2.85;99.4873;94316.78;;;;
2021/03/14 05:06:02;;;;;;;0.5;0.5;;;;;;;2.85;99.4873;94316.78;;;;
2021/03/14 05:07:04;;;;;;;0.5;0.5;;;;;;;2.85;99.4873;94316.78;;;;
2021/03/14 05:08:05;;;;;;;0.5;0.5;;;;;;;2.3;98.61914;94309.93;;;;
2021/03/14 05:09:07;;;;;;;0.5;0.5;;;;;;;2.3;98.61914;94309.93;;;;
2021/03/14 05:10:10;;;;;;;0.5;0.5;;;;;;;2.3;98.61914;94309.93;;;;
2021/03/14 05:11:14;;;;;;;0.5;0.5;;;;;;;2.3;98.61914;94309.93;;;;
2021/03/14 05:12:17;;;;;;;0.5;0.5;;;;;;;2.3;98.61914;94309.93;;;;
2021/03/14 05:13:18;;;;;;;0.5;0.5;;;;;;;2.3;98.61914;94309.93;;;;
2021/03/14 05:14:19;;;;;;;0.5;0.5;;;;;;;2.3;98.61914;94309.93;;;;
2021/03/14 05:15:20;;;;;;;0.5;0.5;;;;;;;2.3;98.61914;94309.93;;;;
2021/03/14 05:16:21;;;;;;;0.5;0.5;;;;;;;2.3;98.61914;94309.93;;;;
2021/03/14 05:17:26;;;;;;;0.5;0.5;;;;;;;2.3;98.61914;94309.93;;;;
2021/03/14 05:18:27;;;;;;;0.4;0.4;;;;;;;1.89;99.76465;94321.8;;;;
2021/03/14 05:19:28;;;;;;;0.4;0.4;;;;;;;1.89;99.76465;94321.8;;;;
2021/03/14 05:20:30;;;;;;;0.4;0.4;;;;;;;1.89;99.76465;94321.8;;;;
2021/03/14 05:21:32;;;;;;;0.4;0.4;;;;;;;1.89;99.76465;94321.8;;;;
2021/03/14 05:22:33;;;;;;;0.4;0.4;;;;;;;1.89;99.76465;94321.8;;;;
2021/03/14 05:23:35;;;;;;;0.4;0.4;;;;;;;1.89;99.76465;94321.8;;;;
2021/03/14 05:24:36;;;;;;;0.4;0.4;;;;;;;1.89;99.76465;94321.8;;;;
2021/03/14 05:25:38;;;;;;;0.4;0.4;;;;;;;1.89;99.76465;94321.8;;;;
2021/03/14 05:26:41;;;;;;;0.4;0.4;;;;;;;1.89;99.76465;94321.8;;;;
2021/03/14 05:27:49;;;;;;;0.4;0.4;;;;;;;1.89;99.76465;94321.8;;;;
2021/03/14 05:28:53;;;;;;;1.3;0.7;;;;;;;1.69;100;94344.02;;;;
2021/03/14 05:29:56;;;;;;;1.3;0.7;;;;;;;1.69;100;94344.02;;;;
2021/03/14 05:30:57;;;;;;;1.3;0.7;;;;;;;1.69;100;94344.02;;;;
2021/03/14 05:31:57;;;;;;;1.3;0.7;;;;;;;1.69;100;94344.02;;;;
2021/03/14 05:32:58;;;;;;;1.3;0.7;;;;;;;1.69;100;94344.02;;;;
2021/03/14 05:33:59;;;;;;;1.3;0.7;;;;;;;1.69;100;94344.02;;;;
2021/03/14 05:35:01;;;;;;;1.3;0.7;;;;;;;1.69;100;94344.02;;;;
2021/03/14 05:36:02;;;;;;;1.3;0.7;;;;;;;1.69;100;94344.02;;;;
2021/03/14 05:37:04;;;;;;;1.3;0.7;;;;;;;1.69;100;94344.02;;;;
2021/03/14 05:38:05;;;;;;;1.3;0.7;;;;;;;1.69;100;94344.02;;;;
2021/03/14 05:39:05;;;;;;;1.3;0.7;;;;;;;1.69;100;94344.02;;;;
2021/03/14 05:40:07;;;;;;;0.65;0.65;;;;;;;1.63;100;94365.19;;;;
2021/03/14 05:41:08;;;;;;;0.65;0.65;;;;;;;1.63;100;94365.19;;;;
2021/03/14 05:42:09;;;;;;;0.65;0.65;;;;;;;1.63;100;94365.19;;;;
2021/03/14 05:43:11;;;;;;;0.65;0.65;;;;;;;1.63;100;94365.19;;;;
2021/03/14 05:44:11;;;;;;;0.65;0.65;;;;;;;1.63;100;94365.19;;;;
2021/03/14 05:45:12;;;;;;;0.65;0.65;;;;;;;1.63;100;94365.19;;;;
2021/03/14 05:46:14;;;;;;;0.65;0.65;;;;;;;1.63;100;94365.19;;;;
2021/03/14 05:47:15;;;;;;;0.65;0.65;;;;;;;1.63;100;94365.19;;;;
2021/03/14 05:48:15;;;;;;;0.65;0.65;;;;;;;1.63;100;94365.19;;;;
2021/03/14 05:49:16;;;;;;;0.65;0.65;;;;;;;1.63;100;94365.19;;;;
2021/03/14 05:50:16;;;;;;;0.8;0.8;;;;;;;1.64;100;94395.15;;;;
2021/03/14 05:51:20;;;;;;;0.8;0.8;;;;;;;1.64;100;94395.15;;;;
2021/03/14 05:52:24;;;;;;;0.8;0.8;;;;;;;1.64;100;94395.15;;;;
2021/03/14 05:53:26;;;;;;;0.8;0.8;;;;;;;1.64;100;94395.15;;;;
2021/03/14 05:54:27;;;;;;;0.8;0.8;;;;;;;1.64;100;94395.15;;;;
2021/03/14 05:55:29;;;;;;;0.8;0.8;;;;;;;1.64;100;94395.15;;;;
2021/03/14 05:56:30;;;;;;;0.8;0.8;;;;;;;1.64;100;94395.15;;;;
2021/03/14 05:57:32;;;;;;;0.8;0.8;;;;;;;1.64;100;94395.15;;;;
2021/03/14 05:58:33;;;;;;;0.8;0.8;;;;;;;1.64;100;94395.15;;;;
2021/03/14 05:59:35;;;;;;;0.8;0.8;;;;;;;1.64;100;94395.15;;;;
2021/03/14 06:00:37;;;;;;;0.8;0.8;;;;;;;1.64;100;94395.15;;;;
2021/03/14 06:01:38;;;;;;;1.2;0.7;;;;;;;1.67;100;94377.56;;;;
2021/03/14 06:02:38;;;;;;;1.2;0.7;;;;;;;1.67;100;94377.56;;;;
2021/03/14 06:03:40;;;;;;;1.2;0.7;;;;;;;1.67;100;94377.56;;;;
2021/03/14 06:04:41;;;;;;;1.2;0.7;;;;;;;1.67;100;94377.56;;;;
2021/03/14 06:05:42;;;;;;;1.2;0.7;;;;;;;1.67;100;94377.56;;;;
2021/03/14 06:06:44;;;;;;;1.2;0.7;;;;;;;1.67;100;94377.56;;;;